createdAt,value
2023-08-12T00:00:46.780Z,14.14
2023-08-12T00:01:43.520Z,14.06
2023-08-12T00:02:45.265Z,13.95
2023-08-12T00:03:44.380Z,13.89
2023-08-12T00:04:41.124Z,13.96
2023-08-12T00:05:38.232Z,14.07
2023-08-12T00:06:34.910Z,14.02
2023-08-12T00:07:31.859Z,13.92
2023-08-12T00:08:28.727Z,13.89
2023-08-12T00:09:26.058Z,13.94
2023-08-12T00:10:22.783Z,14.03
2023-08-12T00:11:19.958Z,14.03
2023-08-12T00:12:16.621Z,14.03
2023-08-12T00:13:15.598Z,13.97
2023-08-12T00:14:12.292Z,14.01
2023-08-12T00:15:11.577Z,13.82
2023-08-12T00:16:08.471Z,14.07
2023-08-12T00:17:05.248Z,14.22
2023-08-12T00:18:02.266Z,14.21
2023-08-12T00:18:59.526Z,14.27
2023-08-12T00:19:56.152Z,14.17
2023-08-12T00:20:52.830Z,14.03
2023-08-12T00:21:49.470Z,14.08
2023-08-12T00:22:46.146Z,14.29
2023-08-12T00:23:44.046Z,14.20
2023-08-12T00:24:41.312Z,14.20
2023-08-12T00:25:37.964Z,14.10
2023-08-12T00:26:34.658Z,14.21
2023-08-12T00:27:31.354Z,14.17
2023-08-12T00:28:27.991Z,14.17
2023-08-12T00:29:24.668Z,14.21
2023-08-12T00:30:21.463Z,14.22
2023-08-12T00:31:18.232Z,14.11
2023-08-12T00:32:15.100Z,14.18
2023-08-12T00:33:11.855Z,14.13
2023-08-12T00:34:08.532Z,14.36
2023-08-12T00:35:06.607Z,14.44
2023-08-12T00:36:03.509Z,14.22
2023-08-12T00:37:00.274Z,14.30
2023-08-12T00:37:57.010Z,14.26
2023-08-12T00:38:53.730Z,14.30
2023-08-12T00:39:50.399Z,14.27
2023-08-12T00:40:47.075Z,14.38
2023-08-12T00:41:43.820Z,14.35
2023-08-12T00:42:40.609Z,14.38
2023-08-12T00:43:37.266Z,14.37
2023-08-12T00:44:33.954Z,14.41
2023-08-12T00:45:30.769Z,14.42
2023-08-12T00:46:27.607Z,14.44
2023-08-12T00:47:24.389Z,14.44
2023-08-12T00:48:21.128Z,14.42
2023-08-12T00:49:18.326Z,14.41
2023-08-12T00:50:16.687Z,14.31
2023-08-12T00:51:13.447Z,14.33
2023-08-12T00:52:10.254Z,14.35
2023-08-12T00:53:07.806Z,14.36
2023-08-12T00:54:06.618Z,14.19
2023-08-12T00:55:04.181Z,14.31
2023-08-12T00:56:00.894Z,14.27
2023-08-12T00:56:57.564Z,14.28
2023-08-12T00:57:54.287Z,14.30
2023-08-12T00:58:51.176Z,14.26
2023-08-12T00:59:50.256Z,14.34
2023-08-12T01:00:47.201Z,14.26
2023-08-12T01:01:45.206Z,14.33
2023-08-12T01:02:49.361Z,14.22
2023-08-12T01:03:46.815Z,14.28
2023-08-12T01:04:43.557Z,14.34
2023-08-12T01:05:41.270Z,14.30
2023-08-12T01:06:40.860Z,14.25
2023-08-12T01:07:37.684Z,14.37
2023-08-12T01:08:36.597Z,14.40
2023-08-12T01:09:33.344Z,14.36
2023-08-12T01:10:36.086Z,14.38
2023-08-12T01:11:50.863Z,14.39
2023-08-12T01:13:16.646Z,14.36
2023-08-12T01:14:24.829Z,14.30
2023-08-12T01:15:27.333Z,14.19
2023-08-12T01:16:25.705Z,14.37
2023-08-12T01:17:22.658Z,14.29
2023-08-12T01:18:19.892Z,14.29
2023-08-12T01:19:30.607Z,14.26
2023-08-12T01:20:27.885Z,14.31
2023-08-12T01:21:25.986Z,14.26
2023-08-12T01:22:25.216Z,14.32
2023-08-12T01:23:22.343Z,14.46
2023-08-12T01:24:22.592Z,14.45
2023-08-12T01:25:19.276Z,14.45
2023-08-12T01:26:16.094Z,14.55
2023-08-12T01:27:15.061Z,14.62
2023-08-12T01:28:11.946Z,14.57
2023-08-12T01:29:08.905Z,14.48
2023-08-12T01:30:07.244Z,14.31
2023-08-12T01:31:33.052Z,14.33
2023-08-12T01:32:33.668Z,14.36
2023-08-12T01:33:37.951Z,14.35
2023-08-12T01:34:43.672Z,14.36
2023-08-12T01:35:52.717Z,14.31
2023-08-12T01:36:57.719Z,14.35
2023-08-12T01:37:57.179Z,14.42
2023-08-12T01:38:56.961Z,14.60
2023-08-12T01:39:56.314Z,14.52
2023-08-12T01:40:53.665Z,14.48
2023-08-12T01:41:52.493Z,14.47
2023-08-12T01:42:49.599Z,14.62
2023-08-12T01:43:47.312Z,14.62
2023-08-12T01:44:44.081Z,14.52
2023-08-12T01:45:42.629Z,14.48
2023-08-12T01:46:39.302Z,14.40
2023-08-12T01:47:36.038Z,14.43
2023-08-12T01:48:32.829Z,14.30
2023-08-12T01:49:29.791Z,14.34
2023-08-12T01:50:26.940Z,14.48
2023-08-12T01:51:23.632Z,14.42
2023-08-12T01:52:20.313Z,14.48
2023-08-12T01:53:17.130Z,14.38
2023-08-12T01:54:13.794Z,14.47
2023-08-12T01:55:10.491Z,14.56
2023-08-12T01:56:07.240Z,14.65
2023-08-12T01:57:09.875Z,14.64
2023-08-12T01:58:06.913Z,14.68
2023-08-12T01:59:03.689Z,14.45
2023-08-12T02:00:02.049Z,14.44
2023-08-12T02:00:58.713Z,14.61
2023-08-12T02:01:55.365Z,14.53
2023-08-12T02:02:52.312Z,14.50
2023-08-12T02:03:49.226Z,14.61
2023-08-12T02:04:47.566Z,14.42
2023-08-12T02:05:44.757Z,14.59
2023-08-12T02:06:41.525Z,14.62
2023-08-12T02:07:38.196Z,14.60
2023-08-12T02:08:34.937Z,14.59
2023-08-12T02:09:31.919Z,14.51
2023-08-12T02:10:28.745Z,14.37
2023-08-12T02:11:25.460Z,14.09
2023-08-12T02:12:22.181Z,14.26
2023-08-12T02:13:18.947Z,14.23
2023-08-12T02:14:15.808Z,14.24
2023-08-12T02:15:12.470Z,14.22
2023-08-12T02:16:09.822Z,14.18
2023-08-12T02:17:07.155Z,14.01
2023-08-12T02:18:05.239Z,14.23
2023-08-12T02:19:02.047Z,14.19
2023-08-12T02:19:58.813Z,14.27
2023-08-12T02:20:55.510Z,14.12
2023-08-12T02:21:52.196Z,14.07
2023-08-12T02:22:48.887Z,14.01
2023-08-12T02:23:45.649Z,13.93
2023-08-12T02:24:42.313Z,13.96
2023-08-12T02:25:39.030Z,13.94
2023-08-12T02:26:35.874Z,13.90
2023-08-12T02:27:32.581Z,14.04
2023-08-12T02:28:29.266Z,13.93
2023-08-12T02:29:26.128Z,13.61
2023-08-12T02:30:22.896Z,13.41
2023-08-12T02:31:19.965Z,13.41
2023-08-12T02:32:16.772Z,13.29
2023-08-12T02:33:13.563Z,13.28
2023-08-12T02:34:10.885Z,13.59
2023-08-12T02:35:07.892Z,13.49
2023-08-12T02:36:04.889Z,13.10
2023-08-12T02:37:01.567Z,13.20
2023-08-12T02:37:58.200Z,13.19
2023-08-12T02:38:54.882Z,12.96
2023-08-12T02:39:51.559Z,13.00
2023-08-12T02:40:51.660Z,12.93
2023-08-12T02:41:48.365Z,12.98
2023-08-12T02:42:45.015Z,13.07
2023-08-12T02:43:41.711Z,13.29
2023-08-12T02:44:38.493Z,13.22
2023-08-12T02:45:35.350Z,12.97
2023-08-12T02:46:32.043Z,12.84
2023-08-12T02:47:29.273Z,12.65
2023-08-12T02:48:26.041Z,12.67
2023-08-12T02:49:22.714Z,12.73
2023-08-12T02:50:19.507Z,12.76
2023-08-12T02:51:16.234Z,12.79
2023-08-12T02:52:12.915Z,12.88
2023-08-12T02:53:09.577Z,13.03
2023-08-12T02:54:06.541Z,12.92
2023-08-12T02:55:03.321Z,12.79
2023-08-12T02:56:00.068Z,12.78
2023-08-12T02:56:56.760Z,12.91
2023-08-12T02:57:53.521Z,12.96
2023-08-12T02:58:50.326Z,13.08
2023-08-12T02:59:46.985Z,12.95
2023-08-12T03:00:46.447Z,12.81
2023-08-12T03:01:43.547Z,13.07
2023-08-12T03:02:43.890Z,13.22
2023-08-12T03:03:40.594Z,13.38
2023-08-12T03:04:37.274Z,13.24
2023-08-12T03:05:33.947Z,13.29
2023-08-12T03:06:30.610Z,13.32
2023-08-12T03:07:27.272Z,13.16
2023-08-12T03:08:23.953Z,12.95
2023-08-12T03:09:21.430Z,12.68
2023-08-12T03:10:18.344Z,12.41
2023-08-12T03:11:15.122Z,12.45
2023-08-12T03:12:11.854Z,12.55
2023-08-12T03:13:08.924Z,12.70
2023-08-12T03:14:05.678Z,12.45
2023-08-12T03:15:03.533Z,12.34
2023-08-12T03:16:00.243Z,12.33
2023-08-12T03:16:56.952Z,12.38
2023-08-12T03:17:53.689Z,12.38
2023-08-12T03:18:50.368Z,12.51
2023-08-12T03:19:47.051Z,12.43
2023-08-12T03:20:43.709Z,12.50
2023-08-12T03:21:40.396Z,12.58
2023-08-12T03:22:38.386Z,12.52
2023-08-12T03:23:36.996Z,12.59
2023-08-12T03:24:33.655Z,12.55
2023-08-12T03:25:30.315Z,12.41
2023-08-12T03:26:27.164Z,12.49
2023-08-12T03:27:23.958Z,12.32
2023-08-12T03:28:20.632Z,12.10
2023-08-12T03:29:17.413Z,12.21
2023-08-12T03:30:14.180Z,12.31
2023-08-12T03:31:10.905Z,12.34
2023-08-12T03:32:07.647Z,12.21
2023-08-12T03:33:04.699Z,12.08
2023-08-12T03:34:02.082Z,12.11
2023-08-12T03:34:58.881Z,12.19
2023-08-12T03:35:55.603Z,12.24
2023-08-12T03:36:52.289Z,12.32
2023-08-12T03:37:48.924Z,12.38
2023-08-12T03:38:45.738Z,12.31
2023-08-12T03:39:42.485Z,12.12
2023-08-12T03:40:39.970Z,12.11
2023-08-12T03:41:36.625Z,12.25
2023-08-12T03:42:34.100Z,12.22
2023-08-12T03:43:30.857Z,12.12
2023-08-12T03:44:27.516Z,12.13
2023-08-12T03:45:24.187Z,12.14
2023-08-12T03:46:20.918Z,12.01
2023-08-12T03:47:22.929Z,12.07
2023-08-12T03:48:19.791Z,12.11
2023-08-12T03:49:16.489Z,12.05
2023-08-12T03:50:13.226Z,12.01
2023-08-12T03:51:09.948Z,12.03
2023-08-12T03:52:08.277Z,12.11
2023-08-12T03:53:05.800Z,12.23
2023-08-12T03:54:02.460Z,12.35
2023-08-12T03:54:59.196Z,12.63
2023-08-12T03:55:55.882Z,12.59
2023-08-12T03:56:52.545Z,12.53
2023-08-12T03:57:49.183Z,12.53
2023-08-12T03:58:46.510Z,12.54
2023-08-12T03:59:43.158Z,12.55
2023-08-12T04:00:44.132Z,12.59
2023-08-12T04:01:40.870Z,12.57
2023-08-12T04:02:37.533Z,12.60
2023-08-12T04:03:34.271Z,12.55
2023-08-12T04:04:31.192Z,12.42
2023-08-12T04:05:27.930Z,12.25
2023-08-12T04:06:24.644Z,12.22
2023-08-12T04:07:21.381Z,12.12
2023-08-12T04:08:18.125Z,12.08
2023-08-12T04:09:14.905Z,12.14
2023-08-12T04:10:11.904Z,12.11
2023-08-12T04:11:08.721Z,11.93
2023-08-12T04:12:05.616Z,12.12
2023-08-12T04:13:02.254Z,12.24
2023-08-12T04:13:59.062Z,12.27
2023-08-12T04:14:55.756Z,12.27
2023-08-12T04:15:54.353Z,12.29
2023-08-12T04:16:51.256Z,12.30
2023-08-12T04:17:48.009Z,12.32
2023-08-12T04:18:44.686Z,12.22
2023-08-12T04:19:41.338Z,12.27
2023-08-12T04:20:39.480Z,12.28
2023-08-12T04:21:36.206Z,12.32
2023-08-12T04:22:33.036Z,12.39
2023-08-12T04:23:29.733Z,12.49
2023-08-12T04:24:26.400Z,12.58
2023-08-12T04:25:23.467Z,12.60
2023-08-12T04:26:20.240Z,12.63
2023-08-12T04:27:17.535Z,12.58
2023-08-12T04:28:15.255Z,12.61
2023-08-12T04:29:11.950Z,12.64
2023-08-12T04:30:09.225Z,12.66
2023-08-12T04:31:09.085Z,12.75
2023-08-12T04:32:06.288Z,12.73
2023-08-12T04:33:03.111Z,12.84
2023-08-12T04:33:59.782Z,12.90
2023-08-12T04:34:56.406Z,12.94
2023-08-12T04:35:54.090Z,12.97
2023-08-12T04:36:50.763Z,13.01
2023-08-12T04:37:47.451Z,13.08
2023-08-12T04:38:44.124Z,13.14
2023-08-12T04:39:41.457Z,13.17
2023-08-12T04:40:41.656Z,13.22
2023-08-12T04:41:39.540Z,13.24
2023-08-12T04:42:36.335Z,13.36
2023-08-12T04:43:33.132Z,13.46
2023-08-12T04:44:29.864Z,13.52
2023-08-12T04:45:27.341Z,13.61
2023-08-12T04:46:24.119Z,13.62
2023-08-12T04:47:20.881Z,13.63
2023-08-12T04:48:19.722Z,13.68
2023-08-12T04:49:16.426Z,13.73
2023-08-12T04:50:13.103Z,13.92
2023-08-12T04:51:09.793Z,14.04
2023-08-12T04:52:07.899Z,14.13
2023-08-12T04:53:04.993Z,14.23
2023-08-12T04:54:03.075Z,14.30
2023-08-12T04:54:59.836Z,14.31
2023-08-12T04:55:57.211Z,14.29
2023-08-12T04:56:53.953Z,14.41
2023-08-12T04:57:50.719Z,14.31
2023-08-12T04:58:47.409Z,14.38
2023-08-12T04:59:44.138Z,14.36
2023-08-12T05:00:40.940Z,14.46
2023-08-12T05:01:41.077Z,14.53
2023-08-12T05:02:44.890Z,14.54
2023-08-12T05:03:41.655Z,14.58
2023-08-12T05:04:38.351Z,14.75
2023-08-12T05:05:35.032Z,14.69
2023-08-12T05:06:31.742Z,14.75
2023-08-12T05:07:28.710Z,14.83
2023-08-12T05:08:25.453Z,14.87
2023-08-12T05:09:22.106Z,14.90
2023-08-12T05:10:19.650Z,14.94
2023-08-12T05:11:16.367Z,15.00
2023-08-12T05:12:13.737Z,14.98
2023-08-12T05:13:10.552Z,15.01
2023-08-12T05:14:07.260Z,15.09
2023-08-12T05:15:04.006Z,15.06
2023-08-12T05:16:00.868Z,15.12
2023-08-12T05:16:57.585Z,15.23
2023-08-12T05:17:54.274Z,15.19
2023-08-12T05:18:50.994Z,15.31
2023-08-12T05:19:47.686Z,15.27
2023-08-12T05:20:46.836Z,15.31
2023-08-12T05:21:44.111Z,15.39
2023-08-12T05:22:40.862Z,15.58
2023-08-12T05:23:37.513Z,15.64
2023-08-12T05:24:34.296Z,15.61
2023-08-12T05:25:30.950Z,15.55
2023-08-12T05:26:27.648Z,15.68
2023-08-12T05:27:24.397Z,15.71
2023-08-12T05:28:21.216Z,15.75
2023-08-12T05:29:17.953Z,15.79
2023-08-12T05:30:14.889Z,15.82
2023-08-12T05:31:11.680Z,15.87
2023-08-12T05:32:08.367Z,15.71
2023-08-12T05:33:05.884Z,15.57
2023-08-12T05:34:02.695Z,15.52
2023-08-12T05:34:59.423Z,15.70
2023-08-12T05:35:56.255Z,15.95
2023-08-12T05:36:52.892Z,16.13
2023-08-12T05:37:49.539Z,16.00
2023-08-12T05:38:46.288Z,16.04
2023-08-12T05:39:43.028Z,16.15
2023-08-12T05:40:39.739Z,15.97
2023-08-12T05:41:36.496Z,16.08
2023-08-12T05:42:33.143Z,15.92
2023-08-12T05:43:29.783Z,16.06
2023-08-12T05:44:26.601Z,16.20
2023-08-12T05:45:23.322Z,16.27
2023-08-12T05:46:20.122Z,16.28
2023-08-12T05:47:16.854Z,16.30
2023-08-12T05:48:13.567Z,16.36
2023-08-12T05:49:10.836Z,16.24
2023-08-12T05:50:08.056Z,16.08
2023-08-12T05:51:04.769Z,15.95
2023-08-12T05:52:01.694Z,16.13
2023-08-12T05:52:58.390Z,16.29
2023-08-12T05:53:55.090Z,16.51
2023-08-12T05:54:51.776Z,16.71
2023-08-12T05:55:48.424Z,16.95
2023-08-12T05:56:45.059Z,16.80
2023-08-12T05:57:41.843Z,16.65
2023-08-12T05:58:39.031Z,16.64
2023-08-12T05:59:35.709Z,16.51
2023-08-12T06:00:32.369Z,16.77
2023-08-12T06:01:29.107Z,16.96
2023-08-12T06:02:27.978Z,17.10
2023-08-12T06:03:24.891Z,17.17
2023-08-12T06:04:21.561Z,16.93
2023-08-12T06:05:18.282Z,16.93
2023-08-12T06:06:15.052Z,16.98
2023-08-12T06:07:11.784Z,16.80
2023-08-12T06:08:08.515Z,16.73
2023-08-12T06:09:05.553Z,16.82
2023-08-12T06:10:03.090Z,16.89
2023-08-12T06:10:59.736Z,16.80
2023-08-12T06:11:56.402Z,16.81
2023-08-12T06:12:53.043Z,17.06
2023-08-12T06:13:49.844Z,17.17
2023-08-12T06:14:46.630Z,17.17
2023-08-12T06:15:43.366Z,17.05
2023-08-12T06:16:40.148Z,16.86
2023-08-12T06:17:36.966Z,16.88
2023-08-12T06:18:34.329Z,16.91
2023-08-12T06:19:31.125Z,17.06
2023-08-12T06:20:27.919Z,17.02
2023-08-12T06:21:24.692Z,16.55
2023-08-12T06:22:21.452Z,16.81
2023-08-12T06:23:18.479Z,17.06
2023-08-12T06:24:15.109Z,17.08
2023-08-12T06:25:11.847Z,16.95
2023-08-12T06:26:08.570Z,17.30
2023-08-12T06:27:05.282Z,17.24
2023-08-12T06:28:02.711Z,17.22
2023-08-12T06:28:59.511Z,17.27
2023-08-12T06:29:56.187Z,16.99
2023-08-12T06:30:53.048Z,16.95
2023-08-12T06:31:49.792Z,17.24
2023-08-12T06:32:46.838Z,17.26
2023-08-12T06:33:43.554Z,17.36
2023-08-12T06:34:40.202Z,17.54
2023-08-12T06:35:36.856Z,17.49
2023-08-12T06:36:33.665Z,17.54
2023-08-12T06:37:30.429Z,17.80
2023-08-12T06:38:27.129Z,18.22
2023-08-12T06:39:23.817Z,18.19
2023-08-12T06:40:20.819Z,18.28
2023-08-12T06:41:17.482Z,18.46
2023-08-12T06:42:14.564Z,18.22
2023-08-12T06:43:11.802Z,18.26
2023-08-12T06:44:08.472Z,18.11
2023-08-12T06:45:05.706Z,18.39
2023-08-12T06:46:02.451Z,18.67
2023-08-12T06:46:59.153Z,18.45
2023-08-12T06:47:55.809Z,18.57
2023-08-12T06:48:52.432Z,18.50
2023-08-12T06:49:49.116Z,18.74
2023-08-12T06:50:46.529Z,19.03
2023-08-12T06:51:43.122Z,19.07
2023-08-12T06:52:39.802Z,19.05
2023-08-12T06:53:36.459Z,18.72
2023-08-12T06:54:33.190Z,18.53
2023-08-12T06:55:29.788Z,18.71
2023-08-12T06:56:26.443Z,19.02
2023-08-12T06:57:23.152Z,19.06
2023-08-12T06:58:19.794Z,19.11
2023-08-12T06:59:16.532Z,18.76
2023-08-12T07:00:13.651Z,18.73
2023-08-12T07:01:11.308Z,18.65
2023-08-12T07:02:09.976Z,18.59
2023-08-12T07:03:06.920Z,18.67
2023-08-12T07:04:03.852Z,18.91
2023-08-12T07:05:00.611Z,19.08
2023-08-12T07:05:57.571Z,18.91
2023-08-12T07:06:54.230Z,19.11
2023-08-12T07:07:51.051Z,19.19
2023-08-12T07:08:47.709Z,19.30
2023-08-12T07:09:44.667Z,18.69
2023-08-12T07:10:42.207Z,18.86
2023-08-12T07:11:39.415Z,19.04
2023-08-12T07:12:36.417Z,19.36
2023-08-12T07:13:34.694Z,19.58
2023-08-12T07:14:31.440Z,19.38
2023-08-12T07:15:28.147Z,19.71
2023-08-12T07:16:24.950Z,19.44
2023-08-12T07:17:21.577Z,19.39
2023-08-12T07:18:21.113Z,19.64
2023-08-12T07:19:17.730Z,19.97
2023-08-12T07:20:14.391Z,19.56
2023-08-12T07:21:11.173Z,19.45
2023-08-12T07:22:07.851Z,19.42
2023-08-12T07:23:04.750Z,19.14
2023-08-12T07:24:03.875Z,19.24
2023-08-12T07:25:01.246Z,19.58
2023-08-12T07:25:57.949Z,19.65
2023-08-12T07:26:54.566Z,19.66
2023-08-12T07:27:51.262Z,19.83
2023-08-12T07:28:47.979Z,20.09
2023-08-12T07:29:44.653Z,20.35
2023-08-12T07:30:41.304Z,19.60
2023-08-12T07:31:37.967Z,19.91
2023-08-12T07:32:35.014Z,19.70
2023-08-12T07:33:31.759Z,20.17
2023-08-12T07:34:31.344Z,20.39
2023-08-12T07:35:28.409Z,20.35
2023-08-12T07:36:25.243Z,20.11
2023-08-12T07:37:21.937Z,20.18
2023-08-12T07:38:18.980Z,20.14
2023-08-12T07:39:15.676Z,20.51
2023-08-12T07:40:13.696Z,20.17
2023-08-12T07:41:10.375Z,20.14
2023-08-12T07:42:07.014Z,20.39
2023-08-12T07:43:03.849Z,20.60
2023-08-12T07:44:00.643Z,20.03
2023-08-12T07:44:57.324Z,20.03
2023-08-12T07:46:08.361Z,20.28
2023-08-12T07:47:06.547Z,20.28
2023-08-12T07:48:03.408Z,20.35
2023-08-12T07:49:00.363Z,20.14
2023-08-12T07:49:56.995Z,20.40
2023-08-12T07:50:59.569Z,20.41
2023-08-12T07:51:56.634Z,20.28
2023-08-12T07:52:53.345Z,20.58
2023-08-12T07:53:50.096Z,20.86
2023-08-12T07:54:46.872Z,20.96
2023-08-12T07:55:43.905Z,20.71
2023-08-12T07:56:40.694Z,20.70
2023-08-12T07:57:37.329Z,20.79
2023-08-12T07:58:33.935Z,21.12
2023-08-12T07:59:30.626Z,20.83
2023-08-12T08:00:27.322Z,20.73
2023-08-12T08:01:23.959Z,20.67
2023-08-12T08:02:20.781Z,20.91
2023-08-12T08:03:19.838Z,20.95
2023-08-12T08:04:16.688Z,20.90
2023-08-12T08:05:13.552Z,21.15
2023-08-12T08:06:10.358Z,21.44
2023-08-12T08:07:07.123Z,21.37
2023-08-12T08:08:03.955Z,21.05
2023-08-12T08:09:04.122Z,21.34
2023-08-12T08:10:00.890Z,21.68
2023-08-12T08:10:57.560Z,21.82
2023-08-12T08:11:54.870Z,21.79
2023-08-12T08:12:52.934Z,21.75
2023-08-12T08:13:49.721Z,21.97
2023-08-12T08:14:46.494Z,22.10
2023-08-12T08:15:43.190Z,21.84
2023-08-12T08:16:41.578Z,21.81
2023-08-12T08:17:39.389Z,21.69
2023-08-12T08:18:36.205Z,21.79
2023-08-12T08:19:32.974Z,21.38
2023-08-12T08:20:29.644Z,21.87
2023-08-12T08:21:26.652Z,21.83
2023-08-12T08:22:23.368Z,21.69
2023-08-12T08:23:19.982Z,21.72
2023-08-12T08:24:17.029Z,22.04
2023-08-12T08:25:13.825Z,21.79
2023-08-12T08:26:10.832Z,21.93
2023-08-12T08:27:08.420Z,22.42
2023-08-12T08:28:05.220Z,22.24
2023-08-12T08:29:01.895Z,22.49
2023-08-12T08:29:58.517Z,22.08
2023-08-12T08:30:55.367Z,22.44
2023-08-12T08:31:52.001Z,22.57
2023-08-12T08:32:48.738Z,22.59
2023-08-12T08:33:45.669Z,22.62
2023-08-12T08:34:42.319Z,22.85
2023-08-12T08:35:39.351Z,22.75
2023-08-12T08:36:36.128Z,22.40
2023-08-12T08:37:33.061Z,22.27
2023-08-12T08:38:29.736Z,22.27
2023-08-12T08:39:27.455Z,22.01
2023-08-12T08:40:24.472Z,22.18
2023-08-12T08:41:21.776Z,22.39
2023-08-12T08:42:21.534Z,22.89
2023-08-12T08:43:23.376Z,22.43
2023-08-12T08:44:22.665Z,22.90
2023-08-12T08:45:19.405Z,22.57
2023-08-12T08:46:20.104Z,22.80
2023-08-12T08:47:20.706Z,23.08
2023-08-12T08:48:17.476Z,23.32
2023-08-12T08:50:13.580Z,23.59
2023-08-12T08:51:12.197Z,23.52
2023-08-12T08:52:08.947Z,23.60
2023-08-12T08:53:07.683Z,23.63
2023-08-12T08:54:07.325Z,23.28
2023-08-12T08:55:08.049Z,23.37
2023-08-12T08:56:14.819Z,23.71
2023-08-12T08:57:16.876Z,23.43
2023-08-12T08:58:22.374Z,23.59
2023-08-12T08:59:20.431Z,23.08
2023-08-12T09:00:19.047Z,22.88
2023-08-12T09:01:18.929Z,22.69
2023-08-12T09:02:19.792Z,22.86
2023-08-12T09:03:17.054Z,22.98
2023-08-12T09:04:19.332Z,23.13
2023-08-12T09:05:17.178Z,23.11
2023-08-12T09:06:14.273Z,23.29
2023-08-12T09:07:12.193Z,22.97
2023-08-12T09:08:12.198Z,23.04
2023-08-12T09:09:13.783Z,22.99
2023-08-12T09:10:14.846Z,23.07
2023-08-12T09:11:14.659Z,23.57
2023-08-12T09:12:15.066Z,23.86
2023-08-12T09:13:12.055Z,23.98
2023-08-12T09:14:09.758Z,24.15
2023-08-12T09:15:07.926Z,24.42
2023-08-12T09:16:05.598Z,24.67
2023-08-12T09:17:02.952Z,24.29
2023-08-12T09:18:00.210Z,24.15
2023-08-12T09:18:57.494Z,24.25
2023-08-12T09:19:54.196Z,23.88
2023-08-12T09:20:54.890Z,23.62
2023-08-12T09:21:57.262Z,24.28
2023-08-12T09:22:58.469Z,24.25
2023-08-12T09:23:56.266Z,24.55
2023-08-12T09:24:59.426Z,24.52
2023-08-12T09:25:56.147Z,24.68
2023-08-12T09:26:56.676Z,24.33
2023-08-12T09:27:56.528Z,24.18
2023-08-12T09:28:55.261Z,24.27
2023-08-12T09:29:57.944Z,24.28
2023-08-12T09:30:54.684Z,23.84
2023-08-12T09:31:51.695Z,24.37
2023-08-12T09:33:05.166Z,24.13
2023-08-12T09:34:08.015Z,24.16
2023-08-12T09:35:06.974Z,24.69
2023-08-12T09:36:03.762Z,24.83
2023-08-12T09:37:00.759Z,25.17
2023-08-12T09:37:57.394Z,25.38
2023-08-12T09:38:54.466Z,25.01
2023-08-12T09:39:52.571Z,25.02
2023-08-12T09:40:49.545Z,24.34
2023-08-12T09:41:46.289Z,24.08
2023-08-12T09:42:47.038Z,24.09
2023-08-12T09:43:44.586Z,24.28
2023-08-12T09:44:42.309Z,24.42
2023-08-12T09:45:39.004Z,24.40
2023-08-12T09:46:35.755Z,24.98
2023-08-12T09:47:34.908Z,24.94
2023-08-12T09:48:31.775Z,25.11
2023-08-12T09:49:29.158Z,25.24
2023-08-12T09:50:26.796Z,24.70
2023-08-12T09:51:23.638Z,25.13
2023-08-12T09:52:20.394Z,25.52
2023-08-12T09:53:17.749Z,25.75
2023-08-12T09:54:17.408Z,25.69
2023-08-12T09:55:18.109Z,25.49
2023-08-12T09:56:18.453Z,25.72
2023-08-12T09:57:17.904Z,25.77
2023-08-12T09:58:18.710Z,25.22
2023-08-12T09:59:21.506Z,25.63
2023-08-12T10:00:19.637Z,25.91
2023-08-12T10:01:21.756Z,25.49
2023-08-12T10:02:20.307Z,25.87
2023-08-12T10:03:19.041Z,25.99
2023-08-12T10:04:19.741Z,25.76
2023-08-12T10:05:29.075Z,25.47
2023-08-12T10:06:26.146Z,25.73
2023-08-12T10:07:24.515Z,26.45
2023-08-12T10:08:21.693Z,26.46
2023-08-12T10:09:19.510Z,25.87
2023-08-12T10:10:16.802Z,25.18
2023-08-12T10:11:15.030Z,25.78
2023-08-12T10:12:14.668Z,26.24
2023-08-12T10:13:13.907Z,26.09
2023-08-12T10:14:11.573Z,26.10
2023-08-12T10:15:10.152Z,25.95
2023-08-12T10:16:07.338Z,25.35
2023-08-12T10:17:06.425Z,25.42
2023-08-12T10:18:08.193Z,25.83
2023-08-12T10:19:07.321Z,26.37
2023-08-12T10:20:05.747Z,26.13
2023-08-12T10:21:03.271Z,26.54
2023-08-12T10:22:00.924Z,26.83
2023-08-12T10:22:58.319Z,27.20
2023-08-12T10:23:55.281Z,27.02
2023-08-12T10:24:52.179Z,26.13
2023-08-12T10:25:54.257Z,25.87
2023-08-12T10:26:52.583Z,25.85
2023-08-12T10:27:49.814Z,26.18
2023-08-12T10:28:46.552Z,26.49
2023-08-12T10:29:47.656Z,26.00
2023-08-12T10:30:46.222Z,25.93
2023-08-12T10:31:45.841Z,25.77
2023-08-12T10:32:43.482Z,25.22
2023-08-12T10:33:42.210Z,25.23
2023-08-12T10:34:38.952Z,25.66
2023-08-12T10:36:01.751Z,25.57
2023-08-12T10:37:04.473Z,25.85
2023-08-12T10:38:09.553Z,25.92
2023-08-12T10:39:13.184Z,26.09
2023-08-12T10:40:22.339Z,26.67
2023-08-12T10:41:27.569Z,26.81
2023-08-12T10:42:45.085Z,26.42
2023-08-12T10:43:56.572Z,25.91
2023-08-12T10:44:53.391Z,25.67
2023-08-12T10:45:56.113Z,25.92
2023-08-12T10:46:54.207Z,25.69
2023-08-12T10:48:16.072Z,25.44
2023-08-12T10:49:12.804Z,25.06
2023-08-12T10:50:21.689Z,24.74
2023-08-12T10:51:18.357Z,24.56
2023-08-12T10:52:27.613Z,24.77
2023-08-12T10:53:33.081Z,25.19
2023-08-12T10:54:33.035Z,25.09
2023-08-12T10:55:29.665Z,25.31
2023-08-12T10:56:26.294Z,25.00
2023-08-12T10:57:50.501Z,24.78
2023-08-12T10:58:48.428Z,24.50
2023-08-12T10:59:48.026Z,24.39
2023-08-12T11:00:44.804Z,24.41
2023-08-12T11:01:41.483Z,24.66
2023-08-12T11:02:38.948Z,24.73
2023-08-12T11:03:38.951Z,24.63
2023-08-12T11:04:39.488Z,24.71
2023-08-12T11:05:39.546Z,24.45
2023-08-12T11:06:46.910Z,24.50
2023-08-12T11:07:46.086Z,24.71
2023-08-12T11:08:57.957Z,24.56
2023-08-12T11:09:54.871Z,24.83
2023-08-12T11:10:51.571Z,24.77
2023-08-12T11:11:59.664Z,24.45
2023-08-12T11:12:57.482Z,24.58
2023-08-12T11:13:58.055Z,24.72
2023-08-12T11:14:55.138Z,24.71
2023-08-12T11:15:51.812Z,24.77
2023-08-12T11:16:51.095Z,24.99
2023-08-12T11:17:48.341Z,24.82
2023-08-12T11:18:45.271Z,24.90
2023-08-12T11:19:45.029Z,24.93
2023-08-12T11:20:42.099Z,25.07
2023-08-12T11:21:39.677Z,24.99
2023-08-12T11:22:39.569Z,24.98
2023-08-12T11:23:37.631Z,24.56
2023-08-12T11:24:35.105Z,24.57
2023-08-12T11:25:33.282Z,24.52
2023-08-12T11:26:30.070Z,24.92
2023-08-12T11:27:26.744Z,25.07
2023-08-12T11:28:25.472Z,25.08
2023-08-12T11:29:22.206Z,25.12
2023-08-12T11:30:21.452Z,25.17
2023-08-12T11:31:19.714Z,24.66
2023-08-12T11:32:16.463Z,24.66
2023-08-12T11:33:13.503Z,25.04
2023-08-12T11:34:10.338Z,24.99
2023-08-12T11:35:08.718Z,24.70
2023-08-12T11:36:05.684Z,25.09
2023-08-12T11:37:06.678Z,25.09
2023-08-12T11:38:03.709Z,25.27
2023-08-12T11:39:00.392Z,25.31
2023-08-12T11:39:57.111Z,24.49
2023-08-12T11:40:53.752Z,25.06
2023-08-12T11:41:51.640Z,25.48
2023-08-12T11:42:50.219Z,25.92
2023-08-12T11:43:46.884Z,25.15
2023-08-12T11:44:43.606Z,25.51
2023-08-12T11:45:43.010Z,26.10
2023-08-12T11:46:39.726Z,26.22
2023-08-12T11:47:38.152Z,25.43
2023-08-12T11:48:34.874Z,25.46
2023-08-12T11:49:31.484Z,25.37
2023-08-12T11:50:28.806Z,25.04
2023-08-12T11:51:25.648Z,25.27
2023-08-12T11:52:22.647Z,25.31
2023-08-12T11:53:19.352Z,25.35
2023-08-12T11:54:17.801Z,25.61
2023-08-12T11:55:15.374Z,25.72
2023-08-12T11:56:12.349Z,25.63
2023-08-12T11:57:09.232Z,25.57
2023-08-12T11:58:05.976Z,25.73
2023-08-12T11:59:03.053Z,25.28
2023-08-12T12:00:01.187Z,25.52
2023-08-12T12:00:58.130Z,25.57
2023-08-12T12:01:55.963Z,25.21
2023-08-12T12:02:55.004Z,24.98
2023-08-12T12:03:55.147Z,25.00
2023-08-12T12:04:53.646Z,25.27
2023-08-12T12:05:50.341Z,25.14
2023-08-12T12:06:48.992Z,25.44
2023-08-12T12:07:45.768Z,25.32
2023-08-12T12:08:42.667Z,25.22
2023-08-12T12:09:44.692Z,25.06
2023-08-12T12:10:42.200Z,24.84
2023-08-12T12:11:39.272Z,24.60
2023-08-12T12:12:36.937Z,24.59
2023-08-12T12:13:33.604Z,25.37
2023-08-12T12:14:30.313Z,25.20
2023-08-12T12:15:27.124Z,25.06
2023-08-12T12:16:23.784Z,25.05
2023-08-12T12:17:22.682Z,24.97
2023-08-12T12:18:19.410Z,25.15
2023-08-12T12:19:24.011Z,25.14
2023-08-12T12:20:21.741Z,25.31
2023-08-12T12:21:22.926Z,25.78
2023-08-12T12:22:19.556Z,26.48
2023-08-12T12:23:19.518Z,26.41
2023-08-12T12:24:16.682Z,26.79
2023-08-12T12:25:15.076Z,27.20
2023-08-12T12:26:11.924Z,26.86
2023-08-12T12:27:08.544Z,27.12
2023-08-12T12:28:05.468Z,26.81